sensor_id;sensor_type;location;lat;lon;timestamp;temperature;humidity
16513;DHT22;8369;48.030;11.598;2023-07-31T00:00:03;18.70;99.20
16513;DHT22;8369;48.030;11.598;2023-07-31T00:02:29;18.60;99.60
16513;DHT22;8369;48.030;11.598;2023-07-31T00:04:58;18.60;99.50
16513;DHT22;8369;48.030;11.598;2023-07-31T00:07:27;18.60;99.90
16513;DHT22;8369;48.030;11.598;2023-07-31T00:09:56;18.50;99.90
16513;DHT22;8369;48.030;11.598;2023-07-31T00:12:27;18.50;99.90
16513;DHT22;8369;48.030;11.598;2023-07-31T00:14:55;18.50;99.90
16513;DHT22;8369;48.030;11.598;2023-07-31T00:17:21;18.40;99.90
16513;DHT22;8369;48.030;11.598;2023-07-31T00:19:49;18.40;99.90
16513;DHT22;8369;48.030;11.598;2023-07-31T00:22:16;18.30;99.90
16513;DHT22;8369;48.030;11.598;2023-07-31T00:24:42;18.30;99.90
16513;DHT22;8369;48.030;11.598;2023-07-31T00:27:10;18.20;99.90
16513;DHT22;8369;48.030;11.598;2023-07-31T00:29:36;18.20;99.90
16513;DHT22;8369;48.030;11.598;2023-07-31T00:32:05;18.10;99.90
16513;DHT22;8369;48.030;11.598;2023-07-31T00:34:34;18.10;99.90
16513;DHT22;8369;48.030;11.598;2023-07-31T00:37:00;18.00;99.90
16513;DHT22;8369;48.030;11.598;2023-07-31T00:39:26;18.00;99.90
16513;DHT22;8369;48.030;11.598;2023-07-31T00:41:54;18.00;99.90
16513;DHT22;8369;48.030;11.598;2023-07-31T00:44:20;17.90;99.90
16513;DHT22;8369;48.030;11.598;2023-07-31T00:46:46;18.00;99.90
16513;DHT22;8369;48.030;11.598;2023-07-31T00:49:12;17.90;99.90
16513;DHT22;8369;48.030;11.598;2023-07-31T00:51:39;17.90;99.90
16513;DHT22;8369;48.030;11.598;2023-07-31T00:54:06;17.90;99.90
16513;DHT22;8369;48.030;11.598;2023-07-31T00:56:32;17.90;99.90
16513;DHT22;8369;48.030;11.598;2023-07-31T00:59:14;17.80;99.90
16513;DHT22;8369;48.030;11.598;2023-07-31T01:01:43;17.80;99.90
16513;DHT22;8369;48.030;11.598;2023-07-31T01:04:09;17.80;99.90
16513;DHT22;8369;48.030;11.598;2023-07-31T01:12:34;17.70;99.90
16513;DHT22;8369;48.030;11.598;2023-07-31T01:15:10;17.70;99.90
16513;DHT22;8369;48.030;11.598;2023-07-31T01:17:43;17.70;99.90
16513;DHT22;8369;48.030;11.598;2023-07-31T01:20:24;17.70;99.90
16513;DHT22;8369;48.030;11.598;2023-07-31T01:26:21;17.70;99.90
16513;DHT22;8369;48.030;11.598;2023-07-31T01:31:30;17.70;99.90
16513;DHT22;8369;48.030;11.598;2023-07-31T01:34:03;17.70;99.90
16513;DHT22;8369;48.030;11.598;2023-07-31T01:36:44;17.70;99.90
16513;DHT22;8369;48.030;11.598;2023-07-31T01:39:12;17.70;99.90
16513;DHT22;8369;48.030;11.598;2023-07-31T01:41:39;17.70;99.90
16513;DHT22;8369;48.030;11.598;2023-07-31T01:44:05;17.70;99.90
16513;DHT22;8369;48.030;11.598;2023-07-31T01:46:34;17.70;99.90
16513;DHT22;8369;48.030;11.598;2023-07-31T01:49:01;17.70;99.90
16513;DHT22;8369;48.030;11.598;2023-07-31T01:51:29;17.70;99.90
16513;DHT22;8369;48.030;11.598;2023-07-31T01:54:04;17.70;99.90
16513;DHT22;8369;48.030;11.598;2023-07-31T01:56:33;17.70;99.90
16513;DHT22;8369;48.030;11.598;2023-07-31T01:58:59;17.80;99.90
16513;DHT22;8369;48.030;11.598;2023-07-31T02:01:25;17.80;99.90
16513;DHT22;8369;48.030;11.598;2023-07-31T02:03:51;17.80;99.90
16513;DHT22;8369;48.030;11.598;2023-07-31T02:06:18;17.80;99.90
16513;DHT22;8369;48.030;11.598;2023-07-31T02:08:43;17.80;99.90
16513;DHT22;8369;48.030;11.598;2023-07-31T02:11:09;17.80;99.90
16513;DHT22;8369;48.030;11.598;2023-07-31T02:13:36;17.80;99.90
16513;DHT22;8369;48.030;11.598;2023-07-31T02:16:04;17.80;99.90
16513;DHT22;8369;48.030;11.598;2023-07-31T02:18:36;17.80;99.90
16513;DHT22;8369;48.030;11.598;2023-07-31T02:21:08;17.90;99.90
16513;DHT22;8369;48.030;11.598;2023-07-31T02:23:37;17.80;99.90
16513;DHT22;8369;48.030;11.598;2023-07-31T02:26:02;17.80;99.90
16513;DHT22;8369;48.030;11.598;2023-07-31T02:28:29;17.80;99.90
16513;DHT22;8369;48.030;11.598;2023-07-31T02:30:58;17.90;99.90
16513;DHT22;8369;48.030;11.598;2023-07-31T02:33:29;17.90;99.90
16513;DHT22;8369;48.030;11.598;2023-07-31T02:35:55;17.80;99.90
16513;DHT22;8369;48.030;11.598;2023-07-31T02:38:24;17.80;99.90
16513;DHT22;8369;48.030;11.598;2023-07-31T02:40:51;17.80;99.90
16513;DHT22;8369;48.030;11.598;2023-07-31T02:43:17;17.70;99.90
16513;DHT22;8369;48.030;11.598;2023-07-31T02:45:53;17.70;99.90
16513;DHT22;8369;48.030;11.598;2023-07-31T02:48:19;17.70;99.90
16513;DHT22;8369;48.030;11.598;2023-07-31T02:50:46;17.70;99.90
16513;DHT22;8369;48.030;11.598;2023-07-31T02:53:12;17.70;99.90
16513;DHT22;8369;48.030;11.598;2023-07-31T02:55:41;17.70;99.90
16513;DHT22;8369;48.030;11.598;2023-07-31T02:58:07;17.60;99.90
16513;DHT22;8369;48.030;11.598;2023-07-31T03:00:41;17.60;99.90
16513;DHT22;8369;48.030;11.598;2023-07-31T03:03:10;17.60;99.90
16513;DHT22;8369;48.030;11.598;2023-07-31T03:05:58;17.60;99.90
16513;DHT22;8369;48.030;11.598;2023-07-31T03:08:24;17.60;99.90
16513;DHT22;8369;48.030;11.598;2023-07-31T03:10:50;17.50;99.90
16513;DHT22;8369;48.030;11.598;2023-07-31T03:13:25;17.50;99.90
16513;DHT22;8369;48.030;11.598;2023-07-31T03:15:54;17.50;99.90
16513;DHT22;8369;48.030;11.598;2023-07-31T03:18:22;17.50;99.90
16513;DHT22;8369;48.030;11.598;2023-07-31T03:20:51;17.50;99.90
16513;DHT22;8369;48.030;11.598;2023-07-31T03:23:17;17.40;99.90
16513;DHT22;8369;48.030;11.598;2023-07-31T03:26:03;17.40;99.90
16513;DHT22;8369;48.030;11.598;2023-07-31T03:28:31;17.40;99.90
16513;DHT22;8369;48.030;11.598;2023-07-31T03:30:57;17.30;99.90
16513;DHT22;8369;48.030;11.598;2023-07-31T03:33:27;17.30;99.90
16513;DHT22;8369;48.030;11.598;2023-07-31T03:35:59;17.30;99.90
16513;DHT22;8369;48.030;11.598;2023-07-31T03:38:28;17.20;99.90
16513;DHT22;8369;48.030;11.598;2023-07-31T03:41:15;17.20;99.90
16513;DHT22;8369;48.030;11.598;2023-07-31T03:43:46;17.20;99.90
16513;DHT22;8369;48.030;11.598;2023-07-31T03:46:17;17.10;99.90
16513;DHT22;8369;48.030;11.598;2023-07-31T03:48:45;17.10;99.90
16513;DHT22;8369;48.030;11.598;2023-07-31T03:51:12;17.10;99.90
16513;DHT22;8369;48.030;11.598;2023-07-31T03:53:41;17.10;99.90
16513;DHT22;8369;48.030;11.598;2023-07-31T03:56:07;17.10;99.90
16513;DHT22;8369;48.030;11.598;2023-07-31T03:58:33;17.10;99.90
16513;DHT22;8369;48.030;11.598;2023-07-31T04:01:06;17.10;99.90
16513;DHT22;8369;48.030;11.598;2023-07-31T04:03:32;17.10;99.90
16513;DHT22;8369;48.030;11.598;2023-07-31T04:06:07;17.10;99.90
16513;DHT22;8369;48.030;11.598;2023-07-31T04:08:34;17.10;99.90
16513;DHT22;8369;48.030;11.598;2023-07-31T04:11:04;17.10;99.90
16513;DHT22;8369;48.030;11.598;2023-07-31T04:13:31;17.10;99.90
16513;DHT22;8369;48.030;11.598;2023-07-31T04:16:03;17.10;99.90
16513;DHT22;8369;48.030;11.598;2023-07-31T04:18:29;17.10;99.90
16513;DHT22;8369;48.030;11.598;2023-07-31T04:20:58;17.10;99.90
16513;DHT22;8369;48.030;11.598;2023-07-31T04:23:27;17.20;99.90
16513;DHT22;8369;48.030;11.598;2023-07-31T04:25:56;17.20;99.90
16513;DHT22;8369;48.030;11.598;2023-07-31T04:28:25;17.20;99.90
16513;DHT22;8369;48.030;11.598;2023-07-31T04:30:57;17.20;99.90
16513;DHT22;8369;48.030;11.598;2023-07-31T04:33:23;17.20;99.90
16513;DHT22;8369;48.030;11.598;2023-07-31T04:35:52;17.20;99.90
16513;DHT22;8369;48.030;11.598;2023-07-31T04:38:19;17.20;99.90
16513;DHT22;8369;48.030;11.598;2023-07-31T04:40:46;17.20;99.90
16513;DHT22;8369;48.030;11.598;2023-07-31T04:43:12;17.20;99.90
16513;DHT22;8369;48.030;11.598;2023-07-31T04:45:44;17.20;99.90
16513;DHT22;8369;48.030;11.598;2023-07-31T04:48:11;17.30;99.90
16513;DHT22;8369;48.030;11.598;2023-07-31T04:50:43;17.30;99.90
16513;DHT22;8369;48.030;11.598;2023-07-31T04:53:09;17.20;99.90
16513;DHT22;8369;48.030;11.598;2023-07-31T04:55:42;17.30;99.90
16513;DHT22;8369;48.030;11.598;2023-07-31T04:58:13;17.30;99.90
16513;DHT22;8369;48.030;11.598;2023-07-31T05:00:45;17.30;99.90
16513;DHT22;8369;48.030;11.598;2023-07-31T05:06:10;17.40;99.90
16513;DHT22;8369;48.030;11.598;2023-07-31T05:08:43;17.50;99.90
16513;DHT22;8369;48.030;11.598;2023-07-31T05:11:12;17.50;99.90
16513;DHT22;8369;48.030;11.598;2023-07-31T05:13:41;17.60;99.90
16513;DHT22;8369;48.030;11.598;2023-07-31T05:16:07;17.70;99.90
16513;DHT22;8369;48.030;11.598;2023-07-31T05:18:32;17.80;99.90
16513;DHT22;8369;48.030;11.598;2023-07-31T05:20:58;17.80;99.90
16513;DHT22;8369;48.030;11.598;2023-07-31T05:23:24;17.90;99.90
16513;DHT22;8369;48.030;11.598;2023-07-31T05:25:50;18.00;99.90
16513;DHT22;8369;48.030;11.598;2023-07-31T05:28:16;18.10;99.90
16513;DHT22;8369;48.030;11.598;2023-07-31T05:30:42;18.20;99.90
16513;DHT22;8369;48.030;11.598;2023-07-31T05:33:08;18.30;99.90
16513;DHT22;8369;48.030;11.598;2023-07-31T05:35:34;18.40;99.90
16513;DHT22;8369;48.030;11.598;2023-07-31T05:38:00;18.50;99.90
16513;DHT22;8369;48.030;11.598;2023-07-31T05:40:27;18.60;99.90
16513;DHT22;8369;48.030;11.598;2023-07-31T05:42:53;18.70;99.90
16513;DHT22;8369;48.030;11.598;2023-07-31T05:45:19;18.80;99.90
16513;DHT22;8369;48.030;11.598;2023-07-31T05:47:44;18.90;99.90
16513;DHT22;8369;48.030;11.598;2023-07-31T05:50:11;19.00;99.90
16513;DHT22;8369;48.030;11.598;2023-07-31T05:52:37;19.00;99.90
16513;DHT22;8369;48.030;11.598;2023-07-31T05:55:06;19.10;99.90
16513;DHT22;8369;48.030;11.598;2023-07-31T05:57:32;19.20;99.90
16513;DHT22;8369;48.030;11.598;2023-07-31T06:00:09;19.20;99.90
16513;DHT22;8369;48.030;11.598;2023-07-31T06:02:35;19.20;99.90
16513;DHT22;8369;48.030;11.598;2023-07-31T06:05:03;19.30;99.90
16513;DHT22;8369;48.030;11.598;2023-07-31T06:07:34;19.30;99.90
16513;DHT22;8369;48.030;11.598;2023-07-31T06:10:00;19.30;99.90
16513;DHT22;8369;48.030;11.598;2023-07-31T06:12:30;19.40;99.90
16513;DHT22;8369;48.030;11.598;2023-07-31T06:14:56;19.40;99.90
16513;DHT22;8369;48.030;11.598;2023-07-31T06:17:22;19.40;99.90
16513;DHT22;8369;48.030;11.598;2023-07-31T06:19:49;19.50;99.90
16513;DHT22;8369;48.030;11.598;2023-07-31T06:22:15;19.50;99.90
16513;DHT22;8369;48.030;11.598;2023-07-31T06:24:41;19.60;99.90
16513;DHT22;8369;48.030;11.598;2023-07-31T06:27:08;19.70;99.90
16513;DHT22;8369;48.030;11.598;2023-07-31T06:29:35;19.60;99.90
16513;DHT22;8369;48.030;11.598;2023-07-31T06:32:01;19.60;99.90
16513;DHT22;8369;48.030;11.598;2023-07-31T06:34:27;19.60;99.90
16513;DHT22;8369;48.030;11.598;2023-07-31T06:36:53;19.70;99.90
16513;DHT22;8369;48.030;11.598;2023-07-31T06:39:19;19.60;99.90
16513;DHT22;8369;48.030;11.598;2023-07-31T06:41:45;19.60;99.90
16513;DHT22;8369;48.030;11.598;2023-07-31T06:44:14;19.60;99.90
16513;DHT22;8369;48.030;11.598;2023-07-31T06:46:39;19.60;99.90
16513;DHT22;8369;48.030;11.598;2023-07-31T06:49:05;19.70;99.90
16513;DHT22;8369;48.030;11.598;2023-07-31T06:51:34;19.70;99.90
16513;DHT22;8369;48.030;11.598;2023-07-31T06:54:03;19.70;99.90
16513;DHT22;8369;48.030;11.598;2023-07-31T06:56:29;19.70;99.90
16513;DHT22;8369;48.030;11.598;2023-07-31T06:58:56;19.70;99.90
16513;DHT22;8369;48.030;11.598;2023-07-31T07:01:22;19.70;99.90
16513;DHT22;8369;48.030;11.598;2023-07-31T07:03:47;19.80;99.90
16513;DHT22;8369;48.030;11.598;2023-07-31T07:06:17;19.80;99.90
16513;DHT22;8369;48.030;11.598;2023-07-31T07:08:43;19.90;99.90
16513;DHT22;8369;48.030;11.598;2023-07-31T07:11:11;19.90;99.90
16513;DHT22;8369;48.030;11.598;2023-07-31T07:13:38;20.00;99.90
16513;DHT22;8369;48.030;11.598;2023-07-31T07:16:03;20.00;99.90
16513;DHT22;8369;48.030;11.598;2023-07-31T07:18:30;20.10;99.90
16513;DHT22;8369;48.030;11.598;2023-07-31T07:20:56;20.10;99.90
16513;DHT22;8369;48.030;11.598;2023-07-31T07:23:24;20.10;99.90
16513;DHT22;8369;48.030;11.598;2023-07-31T07:25:50;20.10;99.90
16513;DHT22;8369;48.030;11.598;2023-07-31T07:28:16;20.20;99.90
16513;DHT22;8369;48.030;11.598;2023-07-31T07:30:42;20.20;99.90
16513;DHT22;8369;48.030;11.598;2023-07-31T07:33:08;20.30;97.80
16513;DHT22;8369;48.030;11.598;2023-07-31T07:35:35;20.30;97.10
16513;DHT22;8369;48.030;11.598;2023-07-31T07:38:03;20.30;97.50
16513;DHT22;8369;48.030;11.598;2023-07-31T07:40:32;20.40;97.80
16513;DHT22;8369;48.030;11.598;2023-07-31T07:42:58;20.60;96.60
16513;DHT22;8369;48.030;11.598;2023-07-31T07:45:25;20.70;96.80
16513;DHT22;8369;48.030;11.598;2023-07-31T07:47:51;20.70;96.20
16513;DHT22;8369;48.030;11.598;2023-07-31T07:50:17;20.70;95.80
16513;DHT22;8369;48.030;11.598;2023-07-31T07:52:45;20.70;94.50
16513;DHT22;8369;48.030;11.598;2023-07-31T07:55:13;20.70;95.30
16513;DHT22;8369;48.030;11.598;2023-07-31T07:57:39;20.70;95.90
16513;DHT22;8369;48.030;11.598;2023-07-31T08:00:05;20.70;95.70
16513;DHT22;8369;48.030;11.598;2023-07-31T08:02:31;20.70;95.80
16513;DHT22;8369;48.030;11.598;2023-07-31T08:04:57;20.70;95.70
16513;DHT22;8369;48.030;11.598;2023-07-31T08:07:23;20.80;95.50
16513;DHT22;8369;48.030;11.598;2023-07-31T08:09:50;20.90;94.80
16513;DHT22;8369;48.030;11.598;2023-07-31T08:12:15;21.00;94.20
16513;DHT22;8369;48.030;11.598;2023-07-31T08:14:41;21.10;93.20
16513;DHT22;8369;48.030;11.598;2023-07-31T08:17:07;21.10;90.80
16513;DHT22;8369;48.030;11.598;2023-07-31T08:19:33;21.20;91.50
16513;DHT22;8369;48.030;11.598;2023-07-31T08:21:59;21.40;89.70
16513;DHT22;8369;48.030;11.598;2023-07-31T08:24:31;21.50;89.70
16513;DHT22;8369;48.030;11.598;2023-07-31T08:26:57;21.70;89.40
16513;DHT22;8369;48.030;11.598;2023-07-31T08:29:24;21.70;88.90
16513;DHT22;8369;48.030;11.598;2023-07-31T08:31:53;21.80;87.90
16513;DHT22;8369;48.030;11.598;2023-07-31T08:34:19;21.80;88.90
16513;DHT22;8369;48.030;11.598;2023-07-31T08:36:51;21.90;89.10
16513;DHT22;8369;48.030;11.598;2023-07-31T08:39:17;22.10;87.60
16513;DHT22;8369;48.030;11.598;2023-07-31T08:41:47;22.20;86.50
16513;DHT22;8369;48.030;11.598;2023-07-31T08:44:14;22.20;87.40
16513;DHT22;8369;48.030;11.598;2023-07-31T08:46:41;22.30;87.40
16513;DHT22;8369;48.030;11.598;2023-07-31T08:49:22;22.30;84.80
16513;DHT22;8369;48.030;11.598;2023-07-31T08:51:55;22.20;85.60
16513;DHT22;8369;48.030;11.598;2023-07-31T08:54:23;22.20;84.50
16513;DHT22;8369;48.030;11.598;2023-07-31T08:56:50;22.10;84.50
16513;DHT22;8369;48.030;11.598;2023-07-31T08:59:18;22.10;85.40
16513;DHT22;8369;48.030;11.598;2023-07-31T09:01:50;22.00;85.40
16513;DHT22;8369;48.030;11.598;2023-07-31T09:04:32;21.90;85.00
16513;DHT22;8369;48.030;11.598;2023-07-31T09:07:01;21.70;84.80
16513;DHT22;8369;48.030;11.598;2023-07-31T09:09:31;21.70;87.10
16513;DHT22;8369;48.030;11.598;2023-07-31T09:11:58;21.60;86.80
16513;DHT22;8369;48.030;11.598;2023-07-31T09:14:27;21.60;88.30
16513;DHT22;8369;48.030;11.598;2023-07-31T09:16:57;21.70;88.50
16513;DHT22;8369;48.030;11.598;2023-07-31T09:19:35;21.70;88.60
16513;DHT22;8369;48.030;11.598;2023-07-31T09:22:05;21.80;88.20
16513;DHT22;8369;48.030;11.598;2023-07-31T09:24:33;21.80;86.90
16513;DHT22;8369;48.030;11.598;2023-07-31T09:27:02;21.80;87.60
16513;DHT22;8369;48.030;11.598;2023-07-31T09:29:29;21.80;87.70
16513;DHT22;8369;48.030;11.598;2023-07-31T09:31:57;21.80;86.20
16513;DHT22;8369;48.030;11.598;2023-07-31T09:34:37;21.80;87.60
16513;DHT22;8369;48.030;11.598;2023-07-31T09:37:11;21.80;87.70
16513;DHT22;8369;48.030;11.598;2023-07-31T09:39:47;21.90;87.20
16513;DHT22;8369;48.030;11.598;2023-07-31T09:42:26;22.00;86.80
16513;DHT22;8369;48.030;11.598;2023-07-31T09:45:09;22.20;86.00
16513;DHT22;8369;48.030;11.598;2023-07-31T09:47:47;22.30;84.20
16513;DHT22;8369;48.030;11.598;2023-07-31T09:50:24;22.50;82.10
16513;DHT22;8369;48.030;11.598;2023-07-31T09:52:51;22.50;81.50
16513;DHT22;8369;48.030;11.598;2023-07-31T09:55:18;22.70;81.40
16513;DHT22;8369;48.030;11.598;2023-07-31T09:57:49;22.80;81.00
16513;DHT22;8369;48.030;11.598;2023-07-31T10:00:26;22.90;80.30
16513;DHT22;8369;48.030;11.598;2023-07-31T10:02:54;23.00;80.30
16513;DHT22;8369;48.030;11.598;2023-07-31T10:05:47;23.10;78.50
16513;DHT22;8369;48.030;11.598;2023-07-31T10:08:20;23.20;78.40
16513;DHT22;8369;48.030;11.598;2023-07-31T10:10:47;23.30;76.70
16513;DHT22;8369;48.030;11.598;2023-07-31T10:13:16;23.30;76.80
16513;DHT22;8369;48.030;11.598;2023-07-31T10:15:45;23.30;76.10
16513;DHT22;8369;48.030;11.598;2023-07-31T10:18:12;23.40;77.10
16513;DHT22;8369;48.030;11.598;2023-07-31T10:20:38;23.50;75.60
16513;DHT22;8369;48.030;11.598;2023-07-31T10:23:06;23.60;74.30
16513;DHT22;8369;48.030;11.598;2023-07-31T10:25:33;23.70;75.50
16513;DHT22;8369;48.030;11.598;2023-07-31T10:27:59;23.80;75.50
16513;DHT22;8369;48.030;11.598;2023-07-31T10:30:29;24.00;72.60
16513;DHT22;8369;48.030;11.598;2023-07-31T10:32:56;24.10;72.10
16513;DHT22;8369;48.030;11.598;2023-07-31T10:35:26;24.10;72.40
16513;DHT22;8369;48.030;11.598;2023-07-31T10:37:53;24.30;73.00
16513;DHT22;8369;48.030;11.598;2023-07-31T10:40:26;24.40;72.60
16513;DHT22;8369;48.030;11.598;2023-07-31T10:42:54;24.50;71.50
16513;DHT22;8369;48.030;11.598;2023-07-31T10:45:25;24.70;69.40
16513;DHT22;8369;48.030;11.598;2023-07-31T10:48:00;24.50;66.00
16513;DHT22;8369;48.030;11.598;2023-07-31T10:50:30;24.30;66.30
16513;DHT22;8369;48.030;11.598;2023-07-31T10:52:58;24.30;66.90
16513;DHT22;8369;48.030;11.598;2023-07-31T10:55:42;24.30;67.10
16513;DHT22;8369;48.030;11.598;2023-07-31T10:58:13;24.10;68.30
16513;DHT22;8369;48.030;11.598;2023-07-31T11:00:41;24.10;68.90
16513;DHT22;8369;48.030;11.598;2023-07-31T11:03:15;24.10;70.70
16513;DHT22;8369;48.030;11.598;2023-07-31T11:05:59;24.00;71.50
16513;DHT22;8369;48.030;11.598;2023-07-31T11:08:30;24.10;72.00
16513;DHT22;8369;48.030;11.598;2023-07-31T11:11:10;24.10;72.00
16513;DHT22;8369;48.030;11.598;2023-07-31T11:13:52;24.20;71.40
16513;DHT22;8369;48.030;11.598;2023-07-31T11:16:21;24.20;71.80
16513;DHT22;8369;48.030;11.598;2023-07-31T11:18:48;24.20;70.60
16513;DHT22;8369;48.030;11.598;2023-07-31T11:21:25;24.20;71.50
16513;DHT22;8369;48.030;11.598;2023-07-31T11:23:53;24.10;70.70
16513;DHT22;8369;48.030;11.598;2023-07-31T11:26:19;24.00;71.80
16513;DHT22;8369;48.030;11.598;2023-07-31T11:28:49;24.00;72.60
16513;DHT22;8369;48.030;11.598;2023-07-31T11:31:15;24.00;72.70
16513;DHT22;8369;48.030;11.598;2023-07-31T11:33:42;24.20;72.10
16513;DHT22;8369;48.030;11.598;2023-07-31T11:36:15;24.40;71.50
16513;DHT22;8369;48.030;11.598;2023-07-31T11:38:47;24.60;70.40
16513;DHT22;8369;48.030;11.598;2023-07-31T11:41:15;24.50;70.60
16513;DHT22;8369;48.030;11.598;2023-07-31T11:43:44;24.60;71.50
16513;DHT22;8369;48.030;11.598;2023-07-31T11:46:10;24.60;71.10
16513;DHT22;8369;48.030;11.598;2023-07-31T11:48:37;24.60;70.70
16513;DHT22;8369;48.030;11.598;2023-07-31T11:51:05;24.60;71.20
16513;DHT22;8369;48.030;11.598;2023-07-31T11:54:04;24.70;70.90
16513;DHT22;8369;48.030;11.598;2023-07-31T11:56:32;24.80;70.70
16513;DHT22;8369;48.030;11.598;2023-07-31T11:59:02;24.90;69.80
16513;DHT22;8369;48.030;11.598;2023-07-31T12:01:29;24.90;70.60
16513;DHT22;8369;48.030;11.598;2023-07-31T12:03:56;24.80;67.40
16513;DHT22;8369;48.030;11.598;2023-07-31T12:06:35;24.80;67.90
16513;DHT22;8369;48.030;11.598;2023-07-31T12:09:03;24.90;68.90
16513;DHT22;8369;48.030;11.598;2023-07-31T12:11:29;25.00;69.80
16513;DHT22;8369;48.030;11.598;2023-07-31T12:13:56;25.10;67.60
16513;DHT22;8369;48.030;11.598;2023-07-31T12:16:26;25.20;69.10
16513;DHT22;8369;48.030;11.598;2023-07-31T12:18:52;25.30;67.10
16513;DHT22;8369;48.030;11.598;2023-07-31T12:21:21;25.40;65.40
16513;DHT22;8369;48.030;11.598;2023-07-31T12:23:47;25.40;67.40
16513;DHT22;8369;48.030;11.598;2023-07-31T12:26:15;25.40;67.60
16513;DHT22;8369;48.030;11.598;2023-07-31T12:28:46;25.50;68.30
16513;DHT22;8369;48.030;11.598;2023-07-31T12:31:14;25.60;67.40
16513;DHT22;8369;48.030;11.598;2023-07-31T12:33:44;25.70;65.90
16513;DHT22;8369;48.030;11.598;2023-07-31T12:36:15;25.80;66.20
16513;DHT22;8369;48.030;11.598;2023-07-31T12:38:44;26.00;63.40
16513;DHT22;8369;48.030;11.598;2023-07-31T12:41:10;26.10;62.20
16513;DHT22;8369;48.030;11.598;2023-07-31T12:43:43;26.20;63.10
16513;DHT22;8369;48.030;11.598;2023-07-31T12:46:10;26.30;64.00
16513;DHT22;8369;48.030;11.598;2023-07-31T12:48:37;26.50;63.10
16513;DHT22;8369;48.030;11.598;2023-07-31T12:51:03;26.50;58.70
16513;DHT22;8369;48.030;11.598;2023-07-31T12:53:29;26.50;57.70
16513;DHT22;8369;48.030;11.598;2023-07-31T12:55:56;26.50;58.10
16513;DHT22;8369;48.030;11.598;2023-07-31T12:58:22;26.60;59.70
16513;DHT22;8369;48.030;11.598;2023-07-31T13:00:48;26.70;59.70
16513;DHT22;8369;48.030;11.598;2023-07-31T13:03:14;26.80;59.40
16513;DHT22;8369;48.030;11.598;2023-07-31T13:05:40;26.90;60.10
16513;DHT22;8369;48.030;11.598;2023-07-31T13:08:06;27.00;58.20
16513;DHT22;8369;48.030;11.598;2023-07-31T13:10:32;26.90;58.50
16513;DHT22;8369;48.030;11.598;2023-07-31T13:12:58;26.90;56.70
16513;DHT22;8369;48.030;11.598;2023-07-31T13:15:24;26.70;57.20
16513;DHT22;8369;48.030;11.598;2023-07-31T13:17:50;26.60;58.50
16513;DHT22;8369;48.030;11.598;2023-07-31T13:20:18;26.50;59.70
16513;DHT22;8369;48.030;11.598;2023-07-31T13:22:44;26.40;58.90
16513;DHT22;8369;48.030;11.598;2023-07-31T13:25:12;26.50;59.80
16513;DHT22;8369;48.030;11.598;2023-07-31T13:27:38;26.50;60.10
16513;DHT22;8369;48.030;11.598;2023-07-31T13:30:04;26.50;60.90
16513;DHT22;8369;48.030;11.598;2023-07-31T13:32:30;26.50;59.70
16513;DHT22;8369;48.030;11.598;2023-07-31T13:34:56;26.60;59.10
16513;DHT22;8369;48.030;11.598;2023-07-31T13:37:22;26.60;60.40
16513;DHT22;8369;48.030;11.598;2023-07-31T13:39:48;26.70;60.20
16513;DHT22;8369;48.030;11.598;2023-07-31T13:42:14;26.70;59.10
16513;DHT22;8369;48.030;11.598;2023-07-31T13:44:42;26.80;58.50
16513;DHT22;8369;48.030;11.598;2023-07-31T13:47:08;26.80;57.50
16513;DHT22;8369;48.030;11.598;2023-07-31T13:49:35;26.70;56.40
16513;DHT22;8369;48.030;11.598;2023-07-31T13:52:01;26.70;56.10
16513;DHT22;8369;48.030;11.598;2023-07-31T13:54:27;26.60;57.20
16513;DHT22;8369;48.030;11.598;2023-07-31T13:56:53;26.40;57.70
16513;DHT22;8369;48.030;11.598;2023-07-31T13:59:20;26.50;57.80
16513;DHT22;8369;48.030;11.598;2023-07-31T14:01:46;26.50;58.50
16513;DHT22;8369;48.030;11.598;2023-07-31T14:04:12;26.50;58.40
16513;DHT22;8369;48.030;11.598;2023-07-31T14:06:38;26.60;58.40
16513;DHT22;8369;48.030;11.598;2023-07-31T14:09:04;26.60;57.50
16513;DHT22;8369;48.030;11.598;2023-07-31T14:11:33;26.60;58.10
16513;DHT22;8369;48.030;11.598;2023-07-31T14:14:04;26.70;57.90
16513;DHT22;8369;48.030;11.598;2023-07-31T14:16:30;26.70;57.90
16513;DHT22;8369;48.030;11.598;2023-07-31T14:18:56;26.70;58.50
16513;DHT22;8369;48.030;11.598;2023-07-31T14:21:25;26.70;58.70
16513;DHT22;8369;48.030;11.598;2023-07-31T14:23:51;26.60;58.20
16513;DHT22;8369;48.030;11.598;2023-07-31T14:26:17;26.50;58.20
16513;DHT22;8369;48.030;11.598;2023-07-31T14:28:43;26.40;58.20
16513;DHT22;8369;48.030;11.598;2023-07-31T14:31:10;26.30;58.50
16513;DHT22;8369;48.030;11.598;2023-07-31T14:33:35;26.10;58.70
16513;DHT22;8369;48.030;11.598;2023-07-31T14:36:01;26.10;59.20
16513;DHT22;8369;48.030;11.598;2023-07-31T14:38:28;26.10;58.10
16513;DHT22;8369;48.030;11.598;2023-07-31T14:40:54;26.10;58.40
16513;DHT22;8369;48.030;11.598;2023-07-31T14:43:20;26.10;58.20
16513;DHT22;8369;48.030;11.598;2023-07-31T14:45:46;26.00;58.40
16513;DHT22;8369;48.030;11.598;2023-07-31T14:48:12;25.80;57.90
16513;DHT22;8369;48.030;11.598;2023-07-31T14:50:38;25.70;58.70
16513;DHT22;8369;48.030;11.598;2023-07-31T14:53:04;25.60;58.90
16513;DHT22;8369;48.030;11.598;2023-07-31T14:55:30;25.60;60.20
16513;DHT22;8369;48.030;11.598;2023-07-31T14:57:58;25.60;59.40
16513;DHT22;8369;48.030;11.598;2023-07-31T15:00:33;25.50;60.40
16513;DHT22;8369;48.030;11.598;2023-07-31T15:03:00;25.50;60.90
16513;DHT22;8369;48.030;11.598;2023-07-31T15:05:25;25.40;61.20
16513;DHT22;8369;48.030;11.598;2023-07-31T15:07:51;25.40;61.90
16513;DHT22;8369;48.030;11.598;2023-07-31T15:10:18;25.50;61.30
16513;DHT22;8369;48.030;11.598;2023-07-31T15:12:44;25.50;61.60
16513;DHT22;8369;48.030;11.598;2023-07-31T15:15:10;25.50;61.90
16513;DHT22;8369;48.030;11.598;2023-07-31T15:17:37;25.40;61.80
16513;DHT22;8369;48.030;11.598;2023-07-31T15:20:07;25.40;61.80
16513;DHT22;8369;48.030;11.598;2023-07-31T15:22:33;25.40;61.60
16513;DHT22;8369;48.030;11.598;2023-07-31T15:25:00;25.50;61.30
16513;DHT22;8369;48.030;11.598;2023-07-31T15:27:27;25.50;61.30
16513;DHT22;8369;48.030;11.598;2023-07-31T15:29:54;25.40;62.10
16513;DHT22;8369;48.030;11.598;2023-07-31T15:32:21;25.40;62.10
16513;DHT22;8369;48.030;11.598;2023-07-31T15:34:54;25.50;62.10
16513;DHT22;8369;48.030;11.598;2023-07-31T15:37:23;25.50;61.90
16513;DHT22;8369;48.030;11.598;2023-07-31T15:39:49;25.50;62.20
16513;DHT22;8369;48.030;11.598;2023-07-31T15:42:16;25.40;61.80
16513;DHT22;8369;48.030;11.598;2023-07-31T15:44:42;25.30;62.40
16513;DHT22;8369;48.030;11.598;2023-07-31T15:47:08;25.10;62.40
16513;DHT22;8369;48.030;11.598;2023-07-31T15:49:39;25.00;63.10
16513;DHT22;8369;48.030;11.598;2023-07-31T15:52:06;25.00;62.80